createdAt,value
2019-04-29T00:00:19.890Z,1011.26
2019-04-29T00:01:19.829Z,1011.24
2019-04-29T00:02:19.824Z,1011.28
2019-04-29T00:03:20.079Z,1011.27
2019-04-29T00:04:19.797Z,1011.30
2019-04-29T00:05:19.786Z,1011.32
2019-04-29T00:06:19.809Z,1011.29
2019-04-29T00:07:19.769Z,1011.32
2019-04-29T00:08:19.759Z,1011.31
2019-04-29T00:09:19.769Z,1011.31
2019-04-29T00:10:19.729Z,1011.31
2019-04-29T00:11:19.718Z,1011.34
2019-04-29T00:12:19.778Z,1011.33
2019-04-29T00:13:19.700Z,1011.33
2019-04-29T00:14:19.688Z,1011.33
2019-04-29T00:15:20.038Z,1011.36
2019-04-29T00:16:19.672Z,1011.32
2019-04-29T00:17:19.659Z,1011.36
2019-04-29T00:18:19.697Z,1011.35
2019-04-29T00:19:19.627Z,1011.34
2019-04-29T00:20:19.628Z,1011.31
2019-04-29T00:21:19.624Z,1011.34
2019-04-29T00:22:19.885Z,1011.35
2019-04-29T00:23:19.594Z,1011.37
2019-04-29T00:24:19.639Z,1011.36
2019-04-29T00:25:19.575Z,1011.35
2019-04-29T00:26:19.566Z,1011.33
2019-04-29T00:27:19.546Z,1011.35
2019-04-29T00:28:19.546Z,1011.34
2019-04-29T00:29:19.823Z,1011.38
2019-04-29T00:30:20.056Z,1011.42
2019-04-29T00:31:19.516Z,1011.39
2019-04-29T00:32:19.496Z,1011.37
2019-04-29T00:33:19.486Z,1011.41
2019-04-29T00:34:19.485Z,1011.39
2019-04-29T00:35:19.466Z,1011.39
2019-04-29T00:36:19.804Z,1011.39
2019-04-29T00:37:19.444Z,1011.43
2019-04-29T00:38:19.435Z,1011.42
2019-04-29T00:39:19.425Z,1011.44
2019-04-29T00:40:19.415Z,1011.44
2019-04-29T00:41:19.407Z,1011.48
2019-04-29T00:42:19.424Z,1011.46
2019-04-29T00:43:19.673Z,1011.48
2019-04-29T00:44:19.375Z,1011.48
2019-04-29T00:45:19.365Z,1011.50
2019-04-29T00:46:19.354Z,1011.49
2019-04-29T00:47:19.357Z,1011.51
2019-04-29T00:48:19.687Z,1011.50
2019-04-29T00:49:19.314Z,1011.46
2019-04-29T00:50:19.584Z,1011.46
2019-04-29T00:51:19.293Z,1011.46
2019-04-29T00:52:19.283Z,1011.47
2019-04-29T00:53:19.303Z,1011.50
2019-04-29T00:54:19.310Z,1011.48
2019-04-29T00:55:19.252Z,1011.51
2019-04-29T00:56:19.242Z,1011.54
2019-04-29T00:57:19.513Z,1011.52
2019-04-29T00:58:19.222Z,1011.48
2019-04-29T00:59:19.215Z,1011.47
2019-04-29T01:00:19.262Z,1011.52
2019-04-29T01:01:19.193Z,1011.50
2019-04-29T01:02:19.203Z,1011.50
2019-04-29T01:03:19.251Z,1011.51
2019-04-29T01:04:19.440Z,1011.56
2019-04-29T01:05:19.151Z,1011.49
2019-04-29T01:06:19.304Z,1011.50
2019-04-29T01:07:19.129Z,1011.52
2019-04-29T01:08:19.122Z,1011.53
2019-04-29T01:09:19.101Z,1011.46
2019-04-29T01:10:19.383Z,1011.50
2019-04-29T01:11:19.089Z,1011.53
2019-04-29T01:12:19.111Z,1011.53
2019-04-29T01:13:19.061Z,1011.52
2019-04-29T01:14:19.060Z,1011.52
2019-04-29T01:15:19.069Z,1011.53
2019-04-29T01:16:19.331Z,1011.56
2019-04-29T01:17:19.031Z,1011.56
2019-04-29T01:18:19.079Z,1011.51
2019-04-29T01:19:19.007Z,1011.51
2019-04-29T01:20:18.991Z,1011.53
2019-04-29T01:21:18.980Z,1011.54
2019-04-29T01:22:18.980Z,1011.53
2019-04-29T01:23:18.959Z,1011.55
2019-04-29T01:24:19.079Z,1011.54
2019-04-29T01:25:18.939Z,1011.53
2019-04-29T01:26:18.935Z,1011.52
2019-04-29T01:27:18.919Z,1011.51
2019-04-29T01:28:19.189Z,1011.47
2019-04-29T01:29:18.918Z,1011.51
2019-04-29T01:30:18.933Z,1011.50
2019-04-29T01:31:18.876Z,1011.49
2019-04-29T01:32:18.859Z,1011.53
2019-04-29T01:33:18.856Z,1011.55
2019-04-29T01:34:18.852Z,1011.54
2019-04-29T01:35:18.837Z,1011.54
2019-04-29T01:36:18.857Z,1011.49
2019-04-29T01:37:18.809Z,1011.49
2019-04-29T01:38:18.815Z,1011.49
2019-04-29T01:39:18.790Z,1011.48
2019-04-29T01:40:19.057Z,1011.45
2019-04-29T01:41:18.772Z,1011.53
2019-04-29T01:42:18.847Z,1011.49
2019-04-29T01:43:18.757Z,1011.46
2019-04-29T01:44:18.740Z,1011.51
2019-04-29T01:45:18.727Z,1011.54
2019-04-29T01:46:18.716Z,1011.49
2019-04-29T01:47:18.707Z,1011.52
2019-04-29T01:48:18.758Z,1011.56
2019-04-29T01:49:18.676Z,1011.54
2019-04-29T01:50:18.684Z,1011.56
2019-04-29T01:51:18.656Z,1011.52
2019-04-29T01:52:18.986Z,1011.55
2019-04-29T01:53:18.635Z,1011.59
2019-04-29T01:54:18.685Z,1011.59
2019-04-29T01:55:18.622Z,1011.59
2019-04-29T01:56:18.613Z,1011.58
2019-04-29T01:57:18.595Z,1011.57
2019-04-29T01:58:18.585Z,1011.58
2019-04-29T01:59:18.884Z,1011.54
2019-04-29T02:01:41.563Z,1011.59
2019-04-29T02:02:40.974Z,1011.55
2019-04-29T02:03:40.971Z,1011.61
2019-04-29T02:04:41.021Z,1011.58
2019-04-29T02:05:40.941Z,1011.64
2019-04-29T02:06:40.951Z,1011.54
2019-04-29T02:07:41.272Z,1011.61
2019-04-29T02:08:40.917Z,1011.53
2019-04-29T02:09:40.917Z,1011.64
2019-04-29T02:10:40.891Z,1011.65
2019-04-29T02:11:40.891Z,1011.66
2019-04-29T02:12:40.874Z,1011.63
2019-04-29T02:13:40.910Z,1011.68
2019-04-29T02:14:40.850Z,1011.66
2019-04-29T02:15:40.851Z,1011.67
2019-04-29T02:16:40.832Z,1011.63
2019-04-29T02:17:40.822Z,1011.65
2019-04-29T02:18:40.819Z,1011.62
2019-04-29T02:19:41.189Z,1011.58
2019-04-29T02:20:40.789Z,1011.58
2019-04-29T02:21:40.780Z,1011.59
2019-04-29T02:22:40.771Z,1011.60
2019-04-29T02:23:40.759Z,1011.60
2019-04-29T02:24:40.749Z,1011.59
2019-04-29T02:25:41.069Z,1011.62
2019-04-29T02:26:40.736Z,1011.65
2019-04-29T02:27:40.719Z,1011.63
2019-04-29T02:28:40.708Z,1011.59
2019-04-29T02:29:40.697Z,1011.58
2019-04-29T02:30:40.697Z,1011.60
2019-04-29T02:31:40.749Z,1011.58
2019-04-29T02:32:40.659Z,1011.63
2019-04-29T02:33:40.649Z,1011.64
2019-04-29T02:34:40.662Z,1011.65
2019-04-29T02:35:40.632Z,1011.64
2019-04-29T02:36:40.637Z,1011.64
2019-04-29T02:37:41.253Z,1011.62
2019-04-29T02:38:40.602Z,1011.62
2019-04-29T02:39:40.607Z,1011.61
2019-04-29T02:40:40.577Z,1011.59
2019-04-29T02:41:40.567Z,1011.60
2019-04-29T02:42:40.557Z,1011.59
2019-04-29T02:43:40.606Z,1011.56
2019-04-29T02:44:40.537Z,1011.56
2019-04-29T02:45:40.526Z,1011.54
2019-04-29T02:46:40.517Z,1011.53
2019-04-29T02:47:40.509Z,1011.52
2019-04-29T02:48:40.552Z,1011.51
2019-04-29T02:49:40.806Z,1011.47
2019-04-29T02:50:40.475Z,1011.48
2019-04-29T02:51:40.465Z,1011.45
2019-04-29T02:52:40.447Z,1011.47
2019-04-29T02:53:40.446Z,1011.42
2019-04-29T02:54:40.439Z,1011.46
2019-04-29T02:55:41.173Z,1011.48
2019-04-29T02:56:40.703Z,1011.45
2019-04-29T02:57:40.420Z,1011.46
2019-04-29T02:58:40.422Z,1011.44
2019-04-29T02:59:40.393Z,1011.44
2019-04-29T03:00:40.404Z,1011.44
2019-04-29T03:01:40.431Z,1011.43
2019-04-29T03:02:40.365Z,1011.42
2019-04-29T03:03:41.623Z,1011.45
2019-04-29T03:04:40.333Z,1011.44
2019-04-29T03:05:40.324Z,1011.41
2019-04-29T03:06:40.304Z,1011.43
2019-04-29T03:07:40.448Z,1011.44
2019-04-29T03:08:40.287Z,1011.42
2019-04-29T03:09:40.272Z,1011.42
2019-04-29T03:10:40.564Z,1011.42
2019-04-29T03:11:40.387Z,1011.43
2019-04-29T03:12:40.253Z,1011.46
2019-04-29T03:13:40.343Z,1011.50
2019-04-29T03:14:40.213Z,1011.43
2019-04-29T03:15:40.210Z,1011.50
2019-04-29T03:16:40.201Z,1011.44
2019-04-29T03:17:40.473Z,1011.43
2019-04-29T03:18:40.192Z,1011.44
2019-04-29T03:19:40.202Z,1011.47
2019-04-29T03:20:40.173Z,1011.49
2019-04-29T03:21:40.161Z,1011.42
2019-04-29T03:22:40.131Z,1011.45
2019-04-29T03:23:40.143Z,1011.51
2019-04-29T03:24:40.402Z,1011.46
2019-04-29T03:25:40.163Z,1011.46
2019-04-29T03:26:40.099Z,1011.48
2019-04-29T03:27:40.090Z,1011.46
2019-04-29T03:28:40.091Z,1011.44
2019-04-29T03:29:40.062Z,1011.44
2019-04-29T03:30:40.059Z,1011.45
2019-04-29T03:31:40.548Z,1011.44
2019-04-29T03:32:40.031Z,1011.44
2019-04-29T03:33:40.024Z,1011.45
2019-04-29T03:34:40.022Z,1011.47
2019-04-29T03:35:39.999Z,1011.51
2019-04-29T03:36:39.989Z,1011.49
2019-04-29T03:37:40.327Z,1011.47
2019-04-29T03:38:39.978Z,1011.49
2019-04-29T03:39:39.979Z,1011.43
2019-04-29T03:40:39.949Z,1011.44
2019-04-29T03:41:39.941Z,1011.43
2019-04-29T03:42:39.927Z,1011.45
2019-04-29T03:43:40.272Z,1011.45
2019-04-29T03:44:39.906Z,1011.49
2019-04-29T03:45:39.917Z,1011.47
2019-04-29T03:46:39.887Z,1011.46
2019-04-29T03:47:39.928Z,1011.46
2019-04-29T03:48:39.869Z,1011.45
2019-04-29T03:49:40.178Z,1011.50
2019-04-29T03:50:39.845Z,1011.47
2019-04-29T03:51:39.827Z,1011.46
2019-04-29T03:52:39.817Z,1011.44
2019-04-29T03:53:39.810Z,1011.47
2019-04-29T03:54:39.796Z,1011.50
2019-04-29T03:55:40.787Z,1011.44
2019-04-29T03:56:39.785Z,1011.49
2019-04-29T03:57:39.765Z,1011.50
2019-04-29T03:58:39.755Z,1011.52
2019-04-29T03:59:39.745Z,1011.53
2019-04-29T04:00:43.852Z,1011.53
2019-04-29T04:01:39.764Z,1011.53
2019-04-29T04:02:39.723Z,1011.53
2019-04-29T04:03:39.703Z,1011.55
2019-04-29T04:04:39.697Z,1011.56
2019-04-29T04:05:39.686Z,1011.51
2019-04-29T04:06:39.674Z,1011.53
2019-04-29T04:07:40.035Z,1011.53
2019-04-29T04:08:39.645Z,1011.54
2019-04-29T04:09:39.635Z,1011.55
2019-04-29T04:10:39.643Z,1011.56
2019-04-29T04:11:39.624Z,1011.47
2019-04-29T04:12:39.603Z,1011.52
2019-04-29T04:13:39.665Z,1011.48
2019-04-29T04:14:39.582Z,1011.55
2019-04-29T04:15:39.572Z,1011.59
2019-04-29T04:16:39.595Z,1011.57
2019-04-29T04:17:39.583Z,1011.57
2019-04-29T04:18:39.560Z,1011.62
2019-04-29T04:19:39.852Z,1011.60
2019-04-29T04:20:39.538Z,1011.59
2019-04-29T04:21:39.521Z,1011.63
2019-04-29T04:22:39.501Z,1011.61
2019-04-29T04:23:39.503Z,1011.64
2019-04-29T04:24:39.533Z,1011.63
2019-04-29T04:25:39.574Z,1011.64
2019-04-29T04:26:39.751Z,1011.62
2019-04-29T04:27:39.452Z,1011.59
2019-04-29T04:28:39.449Z,1011.63
2019-04-29T04:29:39.430Z,1011.62
2019-04-29T04:30:39.431Z,1011.61
2019-04-29T04:31:39.457Z,1011.61
2019-04-29T04:32:39.403Z,1011.62
2019-04-29T04:33:39.672Z,1011.63
2019-04-29T04:34:39.379Z,1011.64
2019-04-29T04:35:39.372Z,1011.62
2019-04-29T04:36:39.360Z,1011.67
2019-04-29T04:37:39.406Z,1011.68
2019-04-29T04:38:39.336Z,1011.71
2019-04-29T04:39:39.328Z,1011.74
2019-04-29T04:40:39.599Z,1011.69
2019-04-29T04:41:39.300Z,1011.73
2019-04-29T04:42:39.299Z,1011.71
2019-04-29T04:43:39.798Z,1011.67
2019-04-29T04:44:39.269Z,1011.70
2019-04-29T04:45:39.258Z,1011.69
2019-04-29T04:46:39.259Z,1011.68
2019-04-29T04:47:39.549Z,1011.74
2019-04-29T04:48:39.227Z,1011.71
2019-04-29T04:49:39.258Z,1011.69
2019-04-29T04:50:39.227Z,1011.68
2019-04-29T04:51:39.207Z,1011.73
2019-04-29T04:52:39.201Z,1011.70
2019-04-29T04:53:39.186Z,1011.71
2019-04-29T04:54:39.457Z,1011.73
2019-04-29T04:55:39.206Z,1011.74
2019-04-29T04:56:39.147Z,1011.73
2019-04-29T04:57:39.136Z,1011.75
2019-04-29T04:58:39.135Z,1011.72
2019-04-29T04:59:39.123Z,1011.72
2019-04-29T05:00:39.150Z,1011.72
2019-04-29T05:01:39.226Z,1011.79
2019-04-29T05:02:39.085Z,1011.78
2019-04-29T05:03:39.082Z,1011.77
2019-04-29T05:04:39.072Z,1011.75
2019-04-29T05:05:39.059Z,1011.77
2019-04-29T05:06:39.042Z,1011.77
2019-04-29T05:07:39.544Z,1011.77
2019-04-29T05:08:39.189Z,1011.81
2019-04-29T05:09:39.083Z,1011.77
2019-04-29T05:10:39.214Z,1011.76
2019-04-29T05:11:39.446Z,1011.79
2019-04-29T05:12:39.398Z,1011.81
2019-04-29T05:13:39.034Z,1011.79
2019-04-29T05:14:39.243Z,1011.81
2019-04-29T05:15:38.951Z,1011.84
2019-04-29T05:16:38.946Z,1011.83
2019-04-29T05:17:38.934Z,1011.85
2019-04-29T05:18:38.913Z,1011.85
2019-04-29T05:19:38.953Z,1011.87
2019-04-29T05:20:39.014Z,1011.86
2019-04-29T05:21:38.883Z,1011.88
2019-04-29T05:22:38.873Z,1011.90
2019-04-29T05:23:41.502Z,1011.84
2019-04-29T05:24:38.874Z,1011.88
2019-04-29T05:25:38.881Z,1011.88
2019-04-29T05:26:39.122Z,1011.90
2019-04-29T05:27:38.851Z,1011.94
2019-04-29T05:28:38.811Z,1011.94
2019-04-29T05:29:38.810Z,1011.96
2019-04-29T05:30:38.814Z,1011.94
2019-04-29T05:31:38.833Z,1011.93
2019-04-29T05:32:38.932Z,1011.93
2019-04-29T05:33:39.078Z,1011.93
2019-04-29T05:34:41.742Z,1011.98
2019-04-29T05:35:40.325Z,1011.95
2019-04-29T05:36:39.370Z,1011.98
2019-04-29T05:37:38.850Z,1011.97
2019-04-29T05:38:39.121Z,1011.98
2019-04-29T05:39:38.699Z,1012.00
2019-04-29T05:40:38.698Z,1012.01
2019-04-29T05:41:38.722Z,1012.04
2019-04-29T05:42:38.670Z,1012.08
2019-04-29T05:43:38.750Z,1012.07
2019-04-29T05:44:38.661Z,1012.04
2019-04-29T05:45:41.442Z,1012.08
2019-04-29T05:46:39.631Z,1012.05
2019-04-29T05:47:38.630Z,1012.11
2019-04-29T05:48:38.620Z,1012.13
2019-04-29T05:49:41.637Z,1012.11
2019-04-29T05:50:38.587Z,1012.13
2019-04-29T05:51:38.612Z,1012.13
2019-04-29T05:52:39.372Z,1012.10
2019-04-29T05:53:38.589Z,1012.07
2019-04-29T05:54:38.560Z,1012.14
2019-04-29T05:55:39.049Z,1012.13
2019-04-29T05:56:38.537Z,1012.11
2019-04-29T05:57:38.798Z,1012.12
2019-04-29T05:58:39.627Z,1012.13
2019-04-29T05:59:38.500Z,1012.12
2019-04-29T06:00:38.507Z,1012.13
2019-04-29T06:01:38.538Z,1012.14
2019-04-29T06:02:38.942Z,1012.14
2019-04-29T06:03:39.780Z,1012.14
2019-04-29T06:04:38.827Z,1012.15
2019-04-29T06:05:38.436Z,1012.10
2019-04-29T06:06:38.416Z,1012.09
2019-04-29T06:07:38.455Z,1012.10
2019-04-29T06:08:39.320Z,1012.10
2019-04-29T06:09:38.395Z,1012.11
2019-04-29T06:10:38.386Z,1012.10
2019-04-29T06:11:38.667Z,1012.11
2019-04-29T06:12:38.391Z,1012.08
2019-04-29T06:13:38.415Z,1012.12
2019-04-29T06:14:38.345Z,1012.09
2019-04-29T06:15:38.341Z,1012.11
2019-04-29T06:16:38.343Z,1012.13
2019-04-29T06:17:40.136Z,1012.15
2019-04-29T06:18:40.958Z,1012.18
2019-04-29T06:19:39.260Z,1012.18
2019-04-29T06:20:38.669Z,1012.20
2019-04-29T06:21:38.334Z,1012.15
2019-04-29T06:22:41.965Z,1012.19
2019-04-29T06:23:39.244Z,1012.19
2019-04-29T06:24:41.023Z,1012.20
2019-04-29T06:25:38.672Z,1012.23
2019-04-29T06:26:38.234Z,1012.21
2019-04-29T06:27:39.376Z,1012.22
2019-04-29T06:28:38.192Z,1012.24
2019-04-29T06:29:38.238Z,1012.26
2019-04-29T06:30:40.611Z,1012.26
2019-04-29T06:31:38.643Z,1012.27
2019-04-29T06:32:38.152Z,1012.30
2019-04-29T06:33:38.140Z,1012.33
2019-04-29T06:34:40.170Z,1012.29
2019-04-29T06:35:38.133Z,1012.28
2019-04-29T06:36:38.172Z,1012.32
2019-04-29T06:37:38.114Z,1012.22
2019-04-29T06:38:38.535Z,1012.24
2019-04-29T06:39:38.084Z,1012.21
2019-04-29T06:40:38.074Z,1012.19
2019-04-29T06:41:40.489Z,1012.15
2019-04-29T06:42:39.593Z,1012.18
2019-04-29T06:43:38.040Z,1012.15
2019-04-29T06:44:38.034Z,1012.17
2019-04-29T06:45:38.292Z,1012.24
2019-04-29T06:46:38.019Z,1012.18
2019-04-29T06:47:37.997Z,1012.21
2019-04-29T06:48:38.041Z,1012.22
2019-04-29T06:49:37.971Z,1012.23
2019-04-29T06:50:38.001Z,1012.24
2019-04-29T06:51:38.070Z,1012.27
2019-04-29T06:52:37.952Z,1012.28
2019-04-29T06:53:37.943Z,1012.27
2019-04-29T06:54:38.372Z,1012.25
2019-04-29T06:55:37.919Z,1012.23
2019-04-29T06:56:37.910Z,1012.26
2019-04-29T06:57:38.232Z,1012.25
2019-04-29T06:58:38.412Z,1012.25
2019-04-29T06:59:37.864Z,1012.23
2019-04-29T07:00:37.881Z,1012.22
2019-04-29T07:01:38.735Z,1012.26
2019-04-29T07:02:38.186Z,1012.27
2019-04-29T07:03:37.849Z,1012.22
2019-04-29T07:04:39.596Z,1012.24
2019-04-29T07:05:38.031Z,1012.21
2019-04-29T07:06:37.859Z,1012.22
2019-04-29T07:07:37.804Z,1012.21
2019-04-29T07:08:37.770Z,1012.23
2019-04-29T07:09:38.261Z,1012.24
2019-04-29T07:10:37.742Z,1012.25
2019-04-29T07:11:38.444Z,1012.27
2019-04-29T07:12:37.790Z,1012.29
2019-04-29T07:13:37.919Z,1012.30
2019-04-29T07:14:38.589Z,1012.32
2019-04-29T07:15:37.728Z,1012.28
2019-04-29T07:16:37.696Z,1012.30
2019-04-29T07:17:41.223Z,1012.30
2019-04-29T07:18:40.410Z,1012.32
2019-04-29T07:19:38.648Z,1012.32
2019-04-29T07:20:38.791Z,1012.31
2019-04-29T07:21:41.847Z,1012.25
2019-04-29T07:22:38.618Z,1012.29
2019-04-29T07:23:37.652Z,1012.27
2019-04-29T07:24:37.657Z,1012.27
2019-04-29T07:25:37.596Z,1012.28
2019-04-29T07:26:37.597Z,1012.29
2019-04-29T07:27:42.955Z,1012.28
2019-04-29T07:28:38.970Z,1012.28
2019-04-29T07:29:38.232Z,1012.33
2019-04-29T07:30:59.923Z,1012.31
2019-04-29T07:31:38.858Z,1012.34
2019-04-29T07:32:37.527Z,1012.33
2019-04-29T07:33:37.518Z,1012.29
2019-04-29T07:34:39.624Z,1012.30
2019-04-29T07:35:38.229Z,1012.29
2019-04-29T07:36:37.595Z,1012.29
2019-04-29T07:37:37.706Z,1012.32
2019-04-29T07:38:41.761Z,1012.37
2019-04-29T07:39:37.459Z,1012.31
2019-04-29T07:40:38.803Z,1012.33
2019-04-29T07:41:38.532Z,1012.34
2019-04-29T07:42:37.555Z,1012.33
2019-04-29T07:43:38.587Z,1012.31
2019-04-29T07:44:44.107Z,1012.28
2019-04-29T07:45:44.480Z,1012.26
2019-04-29T07:46:55.630Z,1012.26
2019-04-29T07:47:39.347Z,1012.26
2019-04-29T07:48:41.956Z,1012.23
2019-04-29T07:49:38.655Z,1012.18
2019-04-29T07:50:37.935Z,1012.17
2019-04-29T07:51:39.556Z,1012.13
2019-04-29T07:52:37.334Z,1012.16
2019-04-29T07:53:44.790Z,1012.16
2019-04-29T07:54:38.304Z,1012.11
2019-04-29T07:55:37.304Z,1012.11
2019-04-29T07:56:37.796Z,1012.13
2019-04-29T07:57:38.024Z,1012.10
2019-04-29T07:58:37.254Z,1012.13
2019-04-29T07:59:38.710Z,1012.17
2019-04-29T08:00:38.374Z,1012.15
2019-04-29T08:01:37.293Z,1012.16
2019-04-29T08:02:37.236Z,1012.21
2019-04-29T08:03:37.243Z,1012.13
2019-04-29T08:04:40.217Z,1012.07
2019-04-29T08:05:37.257Z,1012.11
2019-04-29T08:06:38.251Z,1012.11
2019-04-29T08:07:38.163Z,1012.09
2019-04-29T08:08:37.985Z,1012.12
2019-04-29T08:09:39.822Z,1012.11
2019-04-29T08:10:52.213Z,1012.09
2019-04-29T08:11:38.472Z,1012.05
2019-04-29T08:12:37.113Z,1012.03
2019-04-29T08:13:37.382Z,1012.06
2019-04-29T08:14:37.133Z,1012.03
2019-04-29T08:15:41.646Z,1012.10
2019-04-29T08:16:38.133Z,1012.06
2019-04-29T08:17:38.464Z,1012.09
2019-04-29T08:18:38.371Z,1012.11
2019-04-29T08:19:37.067Z,1012.09
2019-04-29T08:20:39.769Z,1012.11
2019-04-29T08:21:38.473Z,1012.10
2019-04-29T08:22:37.915Z,1012.07
2019-04-29T08:23:41.031Z,1012.05
2019-04-29T08:24:37.995Z,1012.06
2019-04-29T08:25:36.962Z,1012.05
2019-04-29T08:26:38.213Z,1012.00
2019-04-29T08:27:40.759Z,1012.00
2019-04-29T08:28:37.930Z,1012.00
2019-04-29T08:29:37.479Z,1012.03
2019-04-29T08:30:36.926Z,1011.97
2019-04-29T08:31:36.912Z,1011.99
2019-04-29T08:32:38.114Z,1011.99
2019-04-29T08:33:37.011Z,1011.99
2019-04-29T08:34:36.883Z,1011.99
2019-04-29T08:35:38.148Z,1012.05
2019-04-29T08:36:37.152Z,1011.99
2019-04-29T08:37:36.864Z,1012.02
2019-04-29T08:38:37.029Z,1012.01
2019-04-29T08:39:37.062Z,1012.00
2019-04-29T08:40:36.801Z,1012.02
2019-04-29T08:41:37.960Z,1012.04
2019-04-29T08:42:37.254Z,1012.02
2019-04-29T08:43:36.762Z,1012.06
2019-04-29T08:44:36.774Z,1012.04
2019-04-29T08:45:39.178Z,1012.05
2019-04-29T08:46:36.731Z,1012.08
2019-04-29T08:47:36.742Z,1012.10
2019-04-29T08:48:36.720Z,1012.09
2019-04-29T08:49:37.330Z,1012.12
2019-04-29T08:50:37.132Z,1012.12
2019-04-29T08:51:37.490Z,1012.13
2019-04-29T08:52:38.538Z,1012.17
2019-04-29T08:53:37.259Z,1012.11
2019-04-29T08:54:39.002Z,1012.17
2019-04-29T08:55:36.795Z,1012.12
2019-04-29T08:56:36.631Z,1012.09
2019-04-29T08:57:37.504Z,1012.14
2019-04-29T08:58:39.332Z,1012.13
2019-04-29T08:59:36.605Z,1012.14
2019-04-29T09:00:37.020Z,1012.13
2019-04-29T09:01:36.591Z,1012.04
2019-04-29T09:02:36.586Z,1012.03
2019-04-29T09:03:40.563Z,1011.93
2019-04-29T09:04:36.598Z,1012.02
2019-04-29T09:05:36.539Z,1011.99
2019-04-29T09:06:36.538Z,1011.99
2019-04-29T09:07:37.800Z,1011.94
2019-04-29T09:08:36.629Z,1011.91
2019-04-29T09:09:36.546Z,1011.93
2019-04-29T09:10:37.854Z,1011.95
2019-04-29T09:11:36.469Z,1011.97
2019-04-29T09:12:36.469Z,1011.97
2019-04-29T09:13:36.770Z,1011.97
2019-04-29T09:14:36.488Z,1011.95
2019-04-29T09:15:37.941Z,1011.95
2019-04-29T09:16:36.589Z,1011.96
2019-04-29T09:17:36.498Z,1012.03
2019-04-29T09:18:36.434Z,1012.00
2019-04-29T09:19:39.306Z,1011.96
2019-04-29T09:20:36.408Z,1011.94
2019-04-29T09:21:37.538Z,1011.91
2019-04-29T09:22:36.365Z,1011.96
2019-04-29T09:23:37.488Z,1011.99
2019-04-29T09:24:36.857Z,1011.92
2019-04-29T09:25:37.020Z,1011.96
2019-04-29T09:26:36.826Z,1011.92
2019-04-29T09:27:40.769Z,1011.94
2019-04-29T09:28:37.307Z,1011.96
2019-04-29T09:29:36.293Z,1011.94
2019-04-29T09:30:38.648Z,1011.95
2019-04-29T09:31:36.282Z,1011.96
2019-04-29T09:32:38.115Z,1011.96
2019-04-29T09:33:36.558Z,1011.97
2019-04-29T09:34:36.241Z,1011.94
2019-04-29T09:35:38.828Z,1011.99
2019-04-29T09:36:37.637Z,1011.95
2019-04-29T09:37:36.198Z,1011.95
2019-04-29T09:38:36.929Z,1012.00
2019-04-29T09:39:43.297Z,1012.01
2019-04-29T09:40:37.860Z,1011.98
2019-04-29T09:41:36.779Z,1011.99
2019-04-29T09:42:36.929Z,1011.97
2019-04-29T09:43:36.806Z,1011.93
2019-04-29T09:44:40.278Z,1011.96
2019-04-29T09:45:37.810Z,1011.95
2019-04-29T09:46:36.449Z,1011.89
2019-04-29T09:47:36.852Z,1011.93
2019-04-29T09:48:36.595Z,1011.93
2019-04-29T09:49:36.408Z,1011.92
2019-04-29T09:50:38.991Z,1011.91
2019-04-29T09:51:36.108Z,1011.90
2019-04-29T09:52:36.049Z,1011.98
2019-04-29T09:53:36.363Z,1011.95
2019-04-29T09:54:36.028Z,1011.90
2019-04-29T09:55:39.931Z,1011.91
2019-04-29T09:56:36.509Z,1011.88
2019-04-29T09:57:36.047Z,1011.91
2019-04-29T09:58:36.278Z,1011.91
2019-04-29T09:59:36.488Z,1011.90
2019-04-29T10:00:40.785Z,1011.92
2019-04-29T10:04:31.368Z,1011.91
2019-04-29T10:05:30.008Z,1011.87
2019-04-29T10:06:29.508Z,1011.85
2019-04-29T10:07:29.746Z,1011.92
2019-04-29T10:08:30.414Z,1011.85
2019-04-29T10:09:29.350Z,1011.84
2019-04-29T10:10:29.407Z,1011.81
2019-04-29T10:11:29.329Z,1011.82
2019-04-29T10:12:29.818Z,1011.78
2019-04-29T10:13:29.344Z,1011.79
2019-04-29T10:14:29.401Z,1011.72
2019-04-29T10:15:29.819Z,1011.81
2019-04-29T10:16:31.661Z,1011.80
2019-04-29T10:17:30.037Z,1011.75
2019-04-29T10:18:31.456Z,1011.77
2019-04-29T10:19:30.119Z,1011.78
2019-04-29T10:20:29.319Z,1011.79
2019-04-29T10:21:29.897Z,1011.85
2019-04-29T10:22:29.837Z,1011.81
2019-04-29T10:23:30.299Z,1011.83
2019-04-29T10:24:29.516Z,1011.81
2019-04-29T10:25:29.676Z,1011.82
2019-04-29T10:26:30.027Z,1011.84
2019-04-29T10:27:30.069Z,1011.79
2019-04-29T10:28:29.746Z,1011.79
2019-04-29T10:29:29.726Z,1011.75
2019-04-29T10:30:31.144Z,1011.77
2019-04-29T10:31:29.237Z,1011.73
2019-04-29T10:32:30.148Z,1011.73
2019-04-29T10:33:29.423Z,1011.71
2019-04-29T10:34:31.549Z,1011.67
2019-04-29T10:35:29.091Z,1011.71
2019-04-29T10:36:29.147Z,1011.66
2019-04-29T10:37:31.472Z,1011.68
2019-04-29T10:38:29.059Z,1011.58
2019-04-29T10:39:29.027Z,1011.68
2019-04-29T10:40:30.437Z,1011.68
2019-04-29T10:41:29.015Z,1011.65
2019-04-29T10:42:29.050Z,1011.65
2019-04-29T10:43:29.045Z,1011.62
2019-04-29T10:44:28.999Z,1011.60
2019-04-29T10:45:28.994Z,1011.59
2019-04-29T10:46:29.070Z,1011.65
2019-04-29T10:47:28.946Z,1011.62
2019-04-29T10:48:29.666Z,1011.62
2019-04-29T10:49:28.917Z,1011.60
2019-04-29T10:50:30.917Z,1011.58
2019-04-29T10:51:29.317Z,1011.64
2019-04-29T10:52:34.545Z,1011.61
2019-04-29T10:53:29.888Z,1011.54
2019-04-29T10:54:28.894Z,1011.50
2019-04-29T10:55:30.086Z,1011.53
2019-04-29T10:56:29.746Z,1011.53
2019-04-29T10:57:29.445Z,1011.53
2019-04-29T10:58:31.111Z,1011.55
2019-04-29T10:59:35.645Z,1011.52
2019-04-29T11:00:29.895Z,1011.55
2019-04-29T11:01:29.447Z,1011.60
2019-04-29T11:02:28.785Z,1011.52
2019-04-29T11:03:28.785Z,1011.53
2019-04-29T11:04:31.723Z,1011.53
2019-04-29T11:05:30.070Z,1011.53
2019-04-29T11:06:31.458Z,1011.47
2019-04-29T11:07:30.445Z,1011.47
2019-04-29T11:08:29.583Z,1011.50
2019-04-29T11:09:28.827Z,1011.55
2019-04-29T11:10:29.054Z,1011.53
2019-04-29T11:11:28.930Z,1011.54
2019-04-29T11:12:28.685Z,1011.56
2019-04-29T11:13:28.702Z,1011.48
2019-04-29T11:14:33.195Z,1011.53
2019-04-29T11:15:32.611Z,1011.55
2019-04-29T11:16:45.282Z,1011.51
2019-04-29T11:17:34.909Z,1011.52
2019-04-29T11:18:28.644Z,1011.51
2019-04-29T11:19:28.621Z,1011.49
2019-04-29T11:20:29.167Z,1011.47
2019-04-29T11:21:31.270Z,1011.47
2019-04-29T11:22:28.603Z,1011.48
2019-04-29T11:23:28.585Z,1011.46
2019-04-29T11:24:28.584Z,1011.42
2019-04-29T11:25:28.563Z,1011.46
2019-04-29T11:26:28.745Z,1011.45
2019-04-29T11:27:29.299Z,1011.40
2019-04-29T11:28:28.808Z,1011.43
2019-04-29T11:29:29.202Z,1011.39
2019-04-29T11:30:29.466Z,1011.43
2019-04-29T11:31:28.484Z,1011.39
2019-04-29T11:32:29.186Z,1011.36
2019-04-29T11:33:28.796Z,1011.32
2019-04-29T11:34:28.531Z,1011.32
2019-04-29T11:35:29.808Z,1011.33
2019-04-29T11:36:28.476Z,1011.35
2019-04-29T11:37:28.411Z,1011.36
2019-04-29T11:38:32.530Z,1011.36
2019-04-29T11:39:29.717Z,1011.34
2019-04-29T11:40:43.006Z,1011.40
2019-04-29T11:41:29.563Z,1011.41
2019-04-29T11:42:31.970Z,1011.38
2019-04-29T11:43:29.985Z,1011.38
2019-04-29T11:44:31.696Z,1011.34
2019-04-29T11:45:28.813Z,1011.36
2019-04-29T11:46:28.614Z,1011.33
2019-04-29T11:47:28.302Z,1011.35
2019-04-29T11:48:28.296Z,1011.36
2019-04-29T11:49:28.282Z,1011.32
2019-04-29T11:50:28.324Z,1011.31
2019-04-29T11:51:28.375Z,1011.28
2019-04-29T11:52:29.266Z,1011.29
2019-04-29T11:53:28.272Z,1011.26
2019-04-29T11:54:28.224Z,1011.23
2019-04-29T11:55:28.229Z,1011.25
2019-04-29T11:56:28.221Z,1011.23
2019-04-29T11:57:40.422Z,1011.26
2019-04-29T11:58:29.270Z,1011.23
2019-04-29T11:59:28.622Z,1011.20
2019-04-29T12:00:28.190Z,1011.21
2019-04-29T12:01:38.369Z,1011.19
2019-04-29T12:02:44.777Z,1011.19
2019-04-29T12:03:29.289Z,1011.19
2019-04-29T12:04:32.946Z,1011.18
2019-04-29T12:05:29.361Z,1011.13
2019-04-29T12:06:28.453Z,1011.17
2019-04-29T12:07:32.608Z,1011.14
2019-04-29T12:08:29.292Z,1011.13
2019-04-29T12:09:30.479Z,1011.12